Thornton, West Virginia
Current Conditions -  °F | °C
As of 8:53 AM on Wednesday 26 Nov 2014 (Local Time) from KCKB Reporting Station
Light Rain Light Rain  
Wind Chill: 36°   Ceiling: 2800
Heat Index: 36°   Visibility: 4mi
Dew Point: 34°   Wind: 0mph
Humidity: 93%   Direction: NA
Pressure: 30.05"   Gusts: NA
Location:  39.35°N, 79.94°W
Report Text: KCKB 261353Z 00000KT 4SM -RA BR OVC028 02/01 A3005 RMK AO2 SLP180 P0004 T00220011
Loading
Personal Weather Stations






























Interactive Weather Map New forecast layout! Learn more

10-Day Weather Forecast

Advertisements
Track Severe Weather on mobile